Ana Sayfa
METAR-TAF:

METAR-TAF

Havaalanları :

Roi Et, Tayland

Enlem: 16-07-00N, Boylam: 103-46-26E, yükseklik: 138 m

Güncel hava durumu gözlemi

Rapor saat 14:00 UTC de 4 saat ve 15 dakika önce yapıldı.
Rüzgar kuzeydan 3 kt
Sıcaklık 17°C
Nem 68%
Basınç 1014 hPa
Görüş mesafesi: 8000 m

METAR: VTUV 101400Z 01003KT 8000 NSC 17/11 Q1014 NOSIG

Saat: 01:15 (18:15 UTC)

Tahmin

Rapor saat 17:00 UTC de 1 saat ve 15 dakika önce yapıldı.
Ayın 10'si saat 18 UTC'den ayın 11'si saat 18 UTC'ye kadar geçerli Tahmin
Rüzgar kuzeydoğudan 4 kt
Görüş mesafesi: 8000 m
Dönüşüyor
ayın 10'si saat 20 UTC'den ayın 10'si saat 22 UTC'ye kadar
Görüş mesafesi: 5000 m
Pus
Dönüşüyor
ayın 11'si saat 00 UTC'den ayın 11'si saat 02 UTC'ye kadar
Görüş mesafesi: 9000 m

TAF: VTUV 101700Z 1018/1118 05004KT 8000 NSC BECMG 1020/1022 5000 BR BECMG 1100/1102 9000 NSW

4.000'den fazla havaalanı için hava durumu gözlemleri ve tahminleri (METAR ve TAF raporları).

Kullanılabilir istasyonlar harita üzerinde sarı ve kırmızı noktalarla gösterilir.

İstasyonun adını görmek için fareyi noktanın üzerinde gezdirin.

Sonrasında hava gözlem ve tahminlerini görmek için tıklayın.

Haritayı değiştirmek için: yaklaştırmak için siyah artı işaretli yeşil düğmeye ve uzaklaştırmak için de eksi işaretli düğmeye hızla tıklayın; bitişik haritalar için yeşil okları kullanın.


METAR-TAF: